createdAt,value
2022-08-09T00:02:29.150Z,74.62
2022-08-09T00:05:02.920Z,75.18
2022-08-09T00:07:44.592Z,74.87
2022-08-09T00:10:18.260Z,74.49
2022-08-09T00:12:52.581Z,75.50
2022-08-09T00:15:35.658Z,75.93
2022-08-09T00:18:12.164Z,75.71
2022-08-09T00:20:42.172Z,76.02
2022-08-09T00:23:54.747Z,77.04
2022-08-09T00:26:10.911Z,76.66
2022-08-09T00:28:39.693Z,76.21
2022-08-09T00:31:30.773Z,76.20
2022-08-09T00:33:54.844Z,75.76
2022-08-09T00:36:27.270Z,75.63
2022-08-09T00:38:58.629Z,75.23
2022-08-09T00:44:13.805Z,74.21
2022-08-09T00:44:19.712Z,74.18
2022-08-09T00:47:04.865Z,74.45
2022-08-09T00:49:34.882Z,73.78
2022-08-09T00:52:06.167Z,74.88
2022-08-09T00:54:43.135Z,76.68
2022-08-09T00:57:12.270Z,78.34
2022-08-09T00:59:46.299Z,80.02
2022-08-09T01:02:19.301Z,82.71
2022-08-09T01:04:59.135Z,85.86
2022-08-09T01:07:59.729Z,90.04
2022-08-09T01:10:35.861Z,91.85
2022-08-09T01:13:22.524Z,93.88
2022-08-09T01:15:53.033Z,94.50
2022-08-09T01:18:30.549Z,96.45
2022-08-09T01:21:07.127Z,100.00
2022-08-09T01:24:16.196Z,100.00
2022-08-09T01:27:07.868Z,100.00
2022-08-09T01:29:56.631Z,100.00
2022-08-09T01:32:45.943Z,100.00
2022-08-09T01:35:37.406Z,100.00
2022-08-09T01:38:15.051Z,100.00
2022-08-09T01:40:52.918Z,100.00
2022-08-09T01:43:41.842Z,100.00
2022-08-09T01:46:29.529Z,100.00
2022-08-09T01:49:10.107Z,100.00
2022-08-09T01:51:42.872Z,100.00
2022-08-09T01:54:13.888Z,100.00
2022-08-09T01:56:47.137Z,100.00
2022-08-09T01:59:21.433Z,100.00
2022-08-09T02:01:59.103Z,100.00
2022-08-09T02:04:28.535Z,100.00
2022-08-09T02:08:34.745Z,100.00
2022-08-09T02:10:11.098Z,100.00
2022-08-09T02:12:39.232Z,100.00
2022-08-09T02:15:15.449Z,100.00
2022-08-09T02:17:59.933Z,100.00
2022-08-09T02:20:46.798Z,100.00
2022-08-09T02:23:42.648Z,100.00
2022-08-09T02:26:26.895Z,100.00
2022-08-09T02:28:56.202Z,100.00
2022-08-09T02:31:34.025Z,100.00
2022-08-09T02:34:13.745Z,100.00
2022-08-09T02:37:01.470Z,100.00
2022-08-09T02:39:41.987Z,100.00
2022-08-09T02:42:16.689Z,100.00
2022-08-09T02:44:52.677Z,100.00
2022-08-09T02:47:22.667Z,100.00
2022-08-09T02:50:12.002Z,100.00
2022-08-09T02:52:55.264Z,100.00
2022-08-09T02:55:46.863Z,100.00
2022-08-09T02:58:36.205Z,100.00
2022-08-09T03:01:04.532Z,100.00
2022-08-09T03:04:13.011Z,100.00
2022-08-09T03:06:25.207Z,100.00
2022-08-09T03:08:55.568Z,100.00
2022-08-09T03:11:29.750Z,100.00
2022-08-09T03:14:12.006Z,100.00
2022-08-09T03:16:44.792Z,100.00
2022-08-09T03:19:14.465Z,100.00
2022-08-09T03:22:03.048Z,100.00
2022-08-09T03:24:42.367Z,100.00
2022-08-09T03:27:21.360Z,100.00
2022-08-09T03:30:01.009Z,100.00
2022-08-09T03:32:32.086Z,100.00
2022-08-09T03:35:00.472Z,100.00
2022-08-09T03:37:56.493Z,100.00
2022-08-09T03:40:17.928Z,100.00
2022-08-09T03:42:46.716Z,100.00
2022-08-09T03:45:14.225Z,100.00
2022-08-09T03:47:46.451Z,100.00
2022-08-09T03:50:18.787Z,100.00
2022-08-09T03:53:03.067Z,100.00
2022-08-09T03:55:30.273Z,100.00
2022-08-09T03:58:09.921Z,100.00
2022-08-09T04:00:45.588Z,100.00
2022-08-09T04:03:24.849Z,100.00
2022-08-09T04:06:04.681Z,100.00
2022-08-09T04:08:34.955Z,100.00
2022-08-09T04:11:02.452Z,100.00
2022-08-09T04:14:37.693Z,100.00
2022-08-09T04:16:20.171Z,100.00
2022-08-09T04:18:48.080Z,100.00
2022-08-09T04:21:18.027Z,100.00
2022-08-09T04:23:53.922Z,100.00
2022-08-09T04:26:24.243Z,100.00
2022-08-09T04:28:52.422Z,100.00
2022-08-09T04:31:21.878Z,100.00
2022-08-09T04:33:56.799Z,100.00
2022-08-09T04:36:28.856Z,100.00
2022-08-09T04:38:59.212Z,100.00
2022-08-09T04:41:33.058Z,100.00
2022-08-09T04:44:06.468Z,100.00
2022-08-09T04:46:59.351Z,100.00
2022-08-09T04:49:53.736Z,100.00
2022-08-09T04:52:27.088Z,100.00
2022-08-09T04:54:56.029Z,100.00
2022-08-09T04:57:23.920Z,100.00
2022-08-09T04:59:54.984Z,100.00
2022-08-09T05:02:23.437Z,100.00
2022-08-09T05:04:55.019Z,100.00
2022-08-09T05:07:22.580Z,100.00
2022-08-09T05:09:52.969Z,100.00
2022-08-09T05:12:27.834Z,100.00
2022-08-09T05:14:54.612Z,100.00
2022-08-09T05:18:37.416Z,100.00
2022-08-09T05:20:09.702Z,100.00
2022-08-09T05:23:53.702Z,100.00
2022-08-09T05:25:26.695Z,100.00
2022-08-09T05:27:59.330Z,100.00
2022-08-09T05:30:27.453Z,100.00
2022-08-09T05:32:58.200Z,100.00
2022-08-09T05:35:25.871Z,100.00
2022-08-09T05:37:55.936Z,97.35
2022-08-09T05:40:23.487Z,96.54
2022-08-09T05:42:50.666Z,96.81
2022-08-09T05:45:17.612Z,95.13
2022-08-09T05:47:51.585Z,94.84
2022-08-09T05:50:36.178Z,95.16
2022-08-09T05:53:21.813Z,93.83
2022-08-09T05:55:58.577Z,95.16
2022-08-09T05:58:25.535Z,93.59
2022-08-09T06:00:53.604Z,93.09
2022-08-09T06:03:20.586Z,92.52
2022-08-09T06:05:54.739Z,90.78
2022-08-09T06:08:27.690Z,90.46
2022-08-09T06:10:55.579Z,91.03
2022-08-09T06:13:23.166Z,92.92
2022-08-09T06:15:51.336Z,90.39
2022-08-09T06:18:24.996Z,88.51
2022-08-09T06:20:57.178Z,89.55
2022-08-09T06:23:57.873Z,86.68
2022-08-09T06:26:14.788Z,86.95
2022-08-09T06:28:47.454Z,86.03
2022-08-09T06:31:14.351Z,87.17
2022-08-09T06:33:42.110Z,86.22
2022-08-09T06:36:15.664Z,85.60
2022-08-09T06:38:49.871Z,85.71
2022-08-09T06:41:18.958Z,85.52
2022-08-09T06:43:48.387Z,83.26
2022-08-09T06:46:39.884Z,83.15
2022-08-09T06:49:02.995Z,80.30
2022-08-09T06:51:30.885Z,77.56
2022-08-09T06:54:00.853Z,75.73
2022-08-09T06:56:30.582Z,75.82
2022-08-09T07:00:57.134Z,75.83
2022-08-09T07:01:54.144Z,73.67
2022-08-09T07:04:26.967Z,72.45
2022-08-09T07:07:00.728Z,73.25
2022-08-09T07:09:56.122Z,70.59
2022-08-09T07:12:20.139Z,68.85
2022-08-09T07:14:51.146Z,68.77
2022-08-09T07:17:20.073Z,69.20
2022-08-09T07:19:48.160Z,67.38
2022-08-09T07:22:18.824Z,67.68
2022-08-09T07:25:01.575Z,65.61
2022-08-09T07:27:34.029Z,65.08
2022-08-09T07:30:02.537Z,63.96
2022-08-09T07:32:33.594Z,63.23
2022-08-09T07:35:10.190Z,63.45
2022-08-09T07:37:43.488Z,61.94
2022-08-09T07:40:16.711Z,60.96
2022-08-09T07:42:50.124Z,60.64
2022-08-09T07:45:33.248Z,57.36
2022-08-09T07:48:05.015Z,56.99
2022-08-09T07:50:34.881Z,56.59
2022-08-09T07:53:05.105Z,53.83
2022-08-09T07:55:41.659Z,53.89
2022-08-09T07:58:21.620Z,51.81
2022-08-09T08:00:58.640Z,50.97
2022-08-09T08:03:36.904Z,50.57
2022-08-09T08:06:05.004Z,49.72
2022-08-09T08:09:02.146Z,49.69
2022-08-09T08:12:24.054Z,48.80
2022-08-09T08:14:06.762Z,47.36
2022-08-09T08:16:34.617Z,48.12
2022-08-09T08:19:02.823Z,44.92
2022-08-09T08:21:31.282Z,45.91
2022-08-09T08:24:01.441Z,44.83
2022-08-09T08:26:55.110Z,42.72
2022-08-09T08:29:28.168Z,41.59
2022-08-09T08:32:04.047Z,41.18
2022-08-09T08:34:34.578Z,36.76
2022-08-09T08:37:03.431Z,34.94
2022-08-09T08:39:39.750Z,35.09
2022-08-09T08:42:10.740Z,35.69
2022-08-09T08:44:37.774Z,33.12
2022-08-09T08:47:12.911Z,32.84
2022-08-09T08:49:48.291Z,31.12
2022-08-09T08:55:08.859Z,26.34
2022-08-09T08:57:37.624Z,26.13
2022-08-09T09:00:20.392Z,21.76
2022-08-09T09:03:04.436Z,22.83
2022-08-09T09:05:59.855Z,22.12
2022-08-09T09:08:31.147Z,22.66
2022-08-09T09:11:04.081Z,21.93
2022-08-09T09:13:47.365Z,23.59
2022-08-09T09:16:29.936Z,22.88
2022-08-09T09:19:15.676Z,22.66
2022-08-09T09:21:58.560Z,21.13
2022-08-09T09:24:29.758Z,22.67
2022-08-09T09:26:58.819Z,20.52
2022-08-09T09:30:10.636Z,21.17
2022-08-09T09:32:32.453Z,20.06
2022-08-09T09:35:12.847Z,20.09
2022-08-09T09:37:46.043Z,19.02
2022-08-09T09:40:13.331Z,21.01
2022-08-09T09:42:43.045Z,21.16
2022-08-09T09:45:14.302Z,20.07
2022-08-09T09:47:56.735Z,20.93
2022-08-09T09:50:50.691Z,18.81
2022-08-09T09:53:43.935Z,19.10
2022-08-09T09:56:19.760Z,19.77
2022-08-09T09:58:49.216Z,20.93
2022-08-09T10:01:37.657Z,21.75
2022-08-09T10:04:22.862Z,20.88
2022-08-09T10:06:58.180Z,20.84
2022-08-09T10:09:55.010Z,20.70
2022-08-09T10:12:37.254Z,20.39
2022-08-09T10:15:25.331Z,20.68
2022-08-09T10:17:56.224Z,21.76
2022-08-09T10:20:45.219Z,21.27
2022-08-09T10:23:20.300Z,21.62
2022-08-09T10:26:06.623Z,21.44
2022-08-09T10:28:38.980Z,23.77
2022-08-09T10:34:11.400Z,20.79
2022-08-09T10:36:43.244Z,22.10
2022-08-09T10:39:15.602Z,20.77
2022-08-09T10:41:47.629Z,19.69
2022-08-09T10:44:23.087Z,20.14
2022-08-09T10:48:16.615Z,19.60
2022-08-09T10:50:27.276Z,18.36
2022-08-09T10:53:17.178Z,17.65
2022-08-09T10:55:58.046Z,18.02
2022-08-09T10:58:31.250Z,18.11
2022-08-09T11:03:05.599Z,20.02
2022-08-09T11:04:28.023Z,19.16
2022-08-09T11:07:00.220Z,20.51
2022-08-09T11:09:41.427Z,20.33
2022-08-09T11:12:30.351Z,20.69
2022-08-09T11:15:19.364Z,21.38
2022-08-09T11:17:56.724Z,19.84
2022-08-09T11:20:41.585Z,22.20
2022-08-09T11:23:10.834Z,20.79
2022-08-09T11:25:47.744Z,20.46
2022-08-09T11:28:38.664Z,20.90
2022-08-09T11:31:43.360Z,21.85
2022-08-09T11:34:22.648Z,22.52
2022-08-09T11:36:52.044Z,23.67
2022-08-09T11:39:22.023Z,22.57
2022-08-09T11:41:53.645Z,23.30
2022-08-09T11:44:44.328Z,22.75
2022-08-09T11:47:14.649Z,23.21
2022-08-09T11:50:53.641Z,22.49
2022-08-09T11:53:15.761Z,22.80
2022-08-09T11:55:51.979Z,22.44
2022-08-09T11:58:19.825Z,21.68
2022-08-09T12:01:08.580Z,20.74
2022-08-09T12:03:55.859Z,20.58
2022-08-09T12:06:32.678Z,19.51
2022-08-09T12:09:17.638Z,20.07
2022-08-09T12:12:04.044Z,19.81
2022-08-09T12:14:40.796Z,20.40
2022-08-09T12:17:33.838Z,20.05
2022-08-09T12:20:22.265Z,19.30
2022-08-09T12:22:56.336Z,18.22
2022-08-09T12:25:35.660Z,18.48
2022-08-09T12:29:09.603Z,17.96
2022-08-09T12:30:57.787Z,18.01
2022-08-09T12:33:26.459Z,18.59
2022-08-09T12:36:27.510Z,18.06
2022-08-09T12:38:59.862Z,17.86
2022-08-09T12:41:38.062Z,16.74
2022-08-09T12:44:12.553Z,16.73
2022-08-09T12:46:48.773Z,17.50
2022-08-09T12:49:20.857Z,16.78
2022-08-09T12:52:02.406Z,16.53
2022-08-09T12:55:03.113Z,17.67
2022-08-09T12:57:39.742Z,17.92
2022-08-09T13:00:25.814Z,16.44
2022-08-09T13:02:58.604Z,15.93
2022-08-09T13:05:50.881Z,15.88
2022-08-09T13:08:40.221Z,15.46
2022-08-09T13:11:23.096Z,15.40
2022-08-09T13:14:37.185Z,15.06
2022-08-09T13:16:46.910Z,15.65
2022-08-09T13:20:08.356Z,14.44
2022-08-09T13:22:37.022Z,14.81
2022-08-09T13:25:07.667Z,14.61
2022-08-09T13:27:48.952Z,14.67
2022-08-09T13:30:51.050Z,15.63
2022-08-09T13:33:21.184Z,16.52
2022-08-09T13:36:39.657Z,16.90
2022-08-09T13:38:55.012Z,16.90
2022-08-09T13:41:59.070Z,16.53
2022-08-09T13:44:16.612Z,16.21
2022-08-09T13:47:29.477Z,16.51
2022-08-09T13:49:37.725Z,15.30
2022-08-09T13:52:08.884Z,15.10
2022-08-09T13:54:42.757Z,15.34
2022-08-09T13:57:36.656Z,15.38
2022-08-09T14:00:05.511Z,15.64
2022-08-09T14:02:42.618Z,15.16
2022-08-09T14:06:01.185Z,15.39
2022-08-09T14:08:12.229Z,15.02
2022-08-09T14:10:49.374Z,15.36
2022-08-09T14:13:28.035Z,15.77
2022-08-09T14:16:14.074Z,15.58
2022-08-09T14:18:46.051Z,15.67
2022-08-09T14:21:22.498Z,15.73
2022-08-09T14:23:56.539Z,15.05
2022-08-09T14:26:30.537Z,15.64
2022-08-09T14:29:07.738Z,14.43
2022-08-09T14:31:54.058Z,14.47
2022-08-09T14:34:31.165Z,14.24
2022-08-09T14:37:06.558Z,14.07
2022-08-09T14:39:46.396Z,14.92
2022-08-09T14:42:30.259Z,14.38
2022-08-09T14:46:57.244Z,14.42
2022-08-09T14:48:14.471Z,14.33
2022-08-09T14:50:41.284Z,14.60
2022-08-09T14:53:12.187Z,14.59
2022-08-09T14:55:49.915Z,15.13
2022-08-09T14:58:17.723Z,15.00
2022-08-09T15:00:48.641Z,14.41
2022-08-09T15:03:20.071Z,14.78
2022-08-09T15:05:52.638Z,14.91
2022-08-09T15:08:24.276Z,14.97
2022-08-09T15:11:00.965Z,15.55
2022-08-09T15:13:56.110Z,16.08
2022-08-09T15:16:31.757Z,15.90
2022-08-09T15:19:02.575Z,16.25
2022-08-09T15:21:54.855Z,16.55
2022-08-09T15:24:27.565Z,16.12
2022-08-09T15:26:54.455Z,16.37
2022-08-09T15:30:55.572Z,17.05
2022-08-09T15:32:28.905Z,17.20
2022-08-09T15:34:56.425Z,17.08
2022-08-09T15:38:10.896Z,17.44
2022-08-09T15:40:43.457Z,17.10
2022-08-09T15:43:14.318Z,16.22
2022-08-09T15:45:52.085Z,16.78
2022-08-09T15:48:31.694Z,16.49
2022-08-09T15:51:02.989Z,15.33
2022-08-09T15:54:07.434Z,17.16
2022-08-09T15:56:36.733Z,19.48
2022-08-09T15:59:04.164Z,19.76
2022-08-09T16:01:35.808Z,20.07
2022-08-09T16:04:03.183Z,19.63
2022-08-09T16:06:35.473Z,20.01
2022-08-09T16:09:05.831Z,18.93
2022-08-09T16:11:33.707Z,19.09
2022-08-09T16:14:07.106Z,22.23
2022-08-09T16:16:38.063Z,24.81
2022-08-09T16:19:13.473Z,24.92
2022-08-09T16:21:41.558Z,23.60
2022-08-09T16:24:32.864Z,23.10
2022-08-09T16:27:01.041Z,22.35
2022-08-09T16:29:36.888Z,20.47
2022-08-09T16:32:20.236Z,19.83
2022-08-09T16:34:57.050Z,18.73
2022-08-09T16:37:53.921Z,18.05
2022-08-09T16:40:14.259Z,18.68
2022-08-09T16:42:48.068Z,18.22
2022-08-09T16:45:21.666Z,18.33
2022-08-09T16:48:50.769Z,17.76
2022-08-09T16:50:38.547Z,17.34
2022-08-09T16:53:06.054Z,16.81
2022-08-09T16:55:58.677Z,17.58
2022-08-09T16:58:21.112Z,18.23
2022-08-09T17:00:50.253Z,18.72
2022-08-09T17:03:21.322Z,19.36
2022-08-09T17:06:08.733Z,20.55
2022-08-09T17:09:00.280Z,22.20
2022-08-09T17:11:40.389Z,23.60
2022-08-09T17:14:25.945Z,25.38
2022-08-09T17:16:54.010Z,25.99
2022-08-09T17:19:21.115Z,26.80
2022-08-09T17:21:55.448Z,27.24
2022-08-09T17:24:27.987Z,28.26
2022-08-09T17:26:58.285Z,28.91
2022-08-09T17:29:31.754Z,30.00
2022-08-09T17:32:05.060Z,30.61
2022-08-09T17:35:04.205Z,31.14
2022-08-09T17:37:19.563Z,31.63
2022-08-09T17:39:52.125Z,32.88
2022-08-09T17:42:41.012Z,32.98
2022-08-09T17:45:16.106Z,34.15
2022-08-09T17:47:54.836Z,34.33
2022-08-09T17:50:36.301Z,34.87
2022-08-09T17:53:19.703Z,35.23
2022-08-09T17:55:55.340Z,36.09
2022-08-09T17:58:27.105Z,36.03
2022-08-09T18:00:56.535Z,36.97
2022-08-09T18:03:24.910Z,36.82
2022-08-09T18:05:53.285Z,37.47
2022-08-09T18:08:21.885Z,38.00
2022-08-09T18:11:02.201Z,38.61
2022-08-09T18:13:38.815Z,38.96
2022-08-09T18:16:30.524Z,39.13
2022-08-09T18:19:03.932Z,39.54
2022-08-09T18:21:50.308Z,39.90
2022-08-09T18:24:20.212Z,39.91
2022-08-09T18:26:56.939Z,40.94
2022-08-09T18:30:38.593Z,41.71
2022-08-09T18:32:11.456Z,42.34
2022-08-09T18:34:41.026Z,42.87
2022-08-09T18:37:10.340Z,42.90
2022-08-09T18:40:05.962Z,43.85
2022-08-09T18:42:34.937Z,43.82
2022-08-09T18:45:09.073Z,43.69
2022-08-09T18:47:50.139Z,44.91
2022-08-09T18:50:19.412Z,44.59
2022-08-09T18:52:51.583Z,46.14
2022-08-09T18:55:45.316Z,45.94
2022-08-09T18:58:10.156Z,45.53
2022-08-09T19:00:40.053Z,45.45
2022-08-09T19:03:09.897Z,45.74
2022-08-09T19:05:48.852Z,45.50
2022-08-09T19:08:28.299Z,45.87
2022-08-09T19:10:57.818Z,45.69
2022-08-09T19:13:38.350Z,46.57
2022-08-09T19:16:20.837Z,47.20
2022-08-09T19:18:48.385Z,46.92
2022-08-09T19:21:21.620Z,47.04
2022-08-09T19:24:39.614Z,47.83
2022-08-09T19:26:56.005Z,48.05
2022-08-09T19:29:23.088Z,48.22
2022-08-09T19:32:00.111Z,48.13
2022-08-09T19:34:29.072Z,48.04
2022-08-09T19:36:58.113Z,49.43
2022-08-09T19:39:42.992Z,49.45
2022-08-09T19:42:19.481Z,51.05
2022-08-09T19:44:50.878Z,50.18
2022-08-09T19:47:23.011Z,49.28
2022-08-09T19:50:10.140Z,50.07
2022-08-09T19:52:38.472Z,49.76
2022-08-09T19:55:30.658Z,49.99
2022-08-09T19:58:07.246Z,49.37
2022-08-09T20:00:45.565Z,49.12
2022-08-09T20:04:10.707Z,49.96
2022-08-09T20:06:03.382Z,51.23
2022-08-09T20:08:35.414Z,51.39
2022-08-09T20:11:04.718Z,51.61
2022-08-09T20:13:37.323Z,52.14
2022-08-09T20:16:34.153Z,52.33
2022-08-09T20:19:42.880Z,53.47
2022-08-09T20:21:57.292Z,54.76
2022-08-09T20:24:29.764Z,55.62
2022-08-09T20:27:05.714Z,54.99
2022-08-09T20:29:37.235Z,54.36
2022-08-09T20:32:29.178Z,54.74
2022-08-09T20:34:58.545Z,55.62
2022-08-09T20:37:25.416Z,55.05
2022-08-09T20:40:15.691Z,55.15
2022-08-09T20:42:53.251Z,54.67
2022-08-09T20:45:59.757Z,54.77
2022-08-09T20:48:21.223Z,54.48
2022-08-09T20:50:51.076Z,54.61
2022-08-09T20:53:36.545Z,55.57
2022-08-09T20:56:20.259Z,56.27
2022-08-09T20:58:49.659Z,55.29
2022-08-09T21:01:34.887Z,56.19
2022-08-09T21:05:48.581Z,55.51
2022-08-09T21:06:51.205Z,55.47
2022-08-09T21:09:32.849Z,55.96
2022-08-09T21:14:36.979Z,54.28
2022-08-09T21:18:21.643Z,54.82
2022-08-09T21:20:18.395Z,55.08
2022-08-09T21:22:46.834Z,55.71
2022-08-09T21:25:38.037Z,54.87
2022-08-09T21:28:07.120Z,54.38
2022-08-09T21:30:37.081Z,55.33
2022-08-09T21:33:09.358Z,54.56
2022-08-09T21:35:39.462Z,53.66
2022-08-09T21:38:21.161Z,53.93
2022-08-09T21:40:58.700Z,54.52
2022-08-09T21:43:57.199Z,55.05
2022-08-09T21:46:13.678Z,56.18
2022-08-09T21:48:42.736Z,56.70
2022-08-09T21:51:24.231Z,57.28
2022-08-09T21:54:02.764Z,58.01
2022-08-09T21:56:43.160Z,58.02
2022-08-09T21:59:16.512Z,57.75
2022-08-09T22:01:59.183Z,58.38
2022-08-09T22:04:55.408Z,57.99
2022-08-09T22:07:35.298Z,58.99
2022-08-09T22:10:04.345Z,59.26
2022-08-09T22:12:32.039Z,58.54
2022-08-09T22:14:59.470Z,58.94
2022-08-09T22:17:27.962Z,58.34
2022-08-09T22:20:00.602Z,59.42
2022-08-09T22:22:30.864Z,60.96
2022-08-09T22:26:04.047Z,61.69
2022-08-09T22:27:47.991Z,61.52
2022-08-09T22:30:16.055Z,62.11
2022-08-09T22:32:58.232Z,60.86
2022-08-09T22:36:01.767Z,61.79
2022-08-09T22:38:11.853Z,60.91
2022-08-09T22:40:48.734Z,60.56
2022-08-09T22:44:02.505Z,61.76
2022-08-09T22:48:11.734Z,62.33
2022-08-09T22:48:56.399Z,62.18
2022-08-09T22:51:28.742Z,61.11
2022-08-09T22:54:02.021Z,62.07
2022-08-09T22:56:33.914Z,63.07
2022-08-09T22:59:55.384Z,62.80
2022-08-09T23:01:52.835Z,63.52
2022-08-09T23:04:20.166Z,64.31
2022-08-09T23:07:11.100Z,63.24
2022-08-09T23:09:39.159Z,64.21
2022-08-09T23:12:06.301Z,64.17
2022-08-09T23:14:37.697Z,64.75
2022-08-09T23:17:08.872Z,64.72
2022-08-09T23:20:07.391Z,65.27
2022-08-09T23:22:22.657Z,67.03
2022-08-09T23:24:49.435Z,67.16
2022-08-09T23:27:16.202Z,67.10
2022-08-09T23:29:42.978Z,67.57
2022-08-09T23:32:10.134Z,67.11
2022-08-09T23:34:37.641Z,68.00
2022-08-09T23:37:05.438Z,68.83
2022-08-09T23:39:32.475Z,69.21
2022-08-09T23:41:59.549Z,69.53
2022-08-09T23:44:26.603Z,70.06
2022-08-09T23:46:57.652Z,71.17
2022-08-09T23:49:25.975Z,71.33
2022-08-09T23:51:54.199Z,71.87
2022-08-09T23:54:26.495Z,71.50
2022-08-09T23:56:56.046Z,72.00
2022-08-09T23:59:24.329Z,71.76
